sensor_id;sensor_type;location;lat;lon;timestamp;pressure;altitude;pressure_sealevel;temperature;humidity
34586;BME280;20816;50.950;11.108;2022-12-18T00:01:27;99821.63;;;-7.63;100.00
34586;BME280;20816;50.950;11.108;2022-12-18T00:03:55;99824.66;;;-7.68;100.00
34586;BME280;20816;50.950;11.108;2022-12-18T00:06:23;99823.50;;;-7.60;100.00
34586;BME280;20816;50.950;11.108;2022-12-18T00:08:50;99819.28;;;-7.59;100.00
34586;BME280;20816;50.950;11.108;2022-12-18T00:11:20;99818.91;;;-7.66;100.00
34586;BME280;20816;50.950;11.108;2022-12-18T00:13:48;99814.44;;;-7.68;100.00
34586;BME280;20816;50.950;11.108;2022-12-18T00:16:19;99826.25;;;-7.82;100.00
34586;BME280;20816;50.950;11.108;2022-12-18T00:18:52;99822.06;;;-7.93;100.00
34586;BME280;20816;50.950;11.108;2022-12-18T00:21:20;99820.28;;;-7.94;100.00
34586;BME280;20816;50.950;11.108;2022-12-18T00:23:48;99818.84;;;-8.02;100.00
34586;BME280;20816;50.950;11.108;2022-12-18T00:26:33;99828.06;;;-8.04;100.00
34586;BME280;20816;50.950;11.108;2022-12-18T00:29:03;99838.72;;;-8.10;100.00
34586;BME280;20816;50.950;11.108;2022-12-18T00:31:31;99834.94;;;-8.15;100.00
34586;BME280;20816;50.950;11.108;2022-12-18T00:33:58;99837.84;;;-8.22;100.00
34586;BME280;20816;50.950;11.108;2022-12-18T00:36:27;99842.72;;;-8.25;100.00
34586;BME280;20816;50.950;11.108;2022-12-18T00:38:57;99847.19;;;-8.23;100.00
34586;BME280;20816;50.950;11.108;2022-12-18T00:41:25;99838.84;;;-8.32;100.00
34586;BME280;20816;50.950;11.108;2022-12-18T00:44:13;99839.44;;;-8.36;100.00
34586;BME280;20816;50.950;11.108;2022-12-18T00:46:41;99830.56;;;-8.41;100.00
34586;BME280;20816;50.950;11.108;2022-12-18T00:49:08;99838.56;;;-8.36;100.00
34586;BME280;20816;50.950;11.108;2022-12-18T00:51:35;99846.53;;;-8.43;100.00
34586;BME280;20816;50.950;11.108;2022-12-18T00:54:01;99841.88;;;-8.49;100.00
34586;BME280;20816;50.950;11.108;2022-12-18T00:56:28;99845.84;;;-8.41;100.00
34586;BME280;20816;50.950;11.108;2022-12-18T00:58:55;99835.44;;;-8.44;100.00
34586;BME280;20816;50.950;11.108;2022-12-18T01:01:22;99840.53;;;-8.56;100.00
34586;BME280;20816;50.950;11.108;2022-12-18T01:03:49;99841.44;;;-8.55;100.00
34586;BME280;20816;50.950;11.108;2022-12-18T01:06:16;99840.00;;;-8.52;100.00
34586;BME280;20816;50.950;11.108;2022-12-18T01:08:43;99855.19;;;-8.53;100.00
34586;BME280;20816;50.950;11.108;2022-12-18T01:11:13;99851.63;;;-8.55;100.00
34586;BME280;20816;50.950;11.108;2022-12-18T01:13:41;99856.19;;;-8.63;100.00
34586;BME280;20816;50.950;11.108;2022-12-18T01:16:10;99866.78;;;-8.68;100.00
34586;BME280;20816;50.950;11.108;2022-12-18T01:18:37;99870.91;;;-8.70;100.00
34586;BME280;20816;50.950;11.108;2022-12-18T01:21:08;99876.00;;;-8.70;100.00
34586;BME280;20816;50.950;11.108;2022-12-18T01:23:36;99877.50;;;-8.72;100.00
34586;BME280;20816;50.950;11.108;2022-12-18T01:26:10;99880.25;;;-8.81;100.00
34586;BME280;20816;50.950;11.108;2022-12-18T01:28:37;99881.50;;;-8.88;100.00
34586;BME280;20816;50.950;11.108;2022-12-18T01:31:13;99885.25;;;-8.94;100.00
34586;BME280;20816;50.950;11.108;2022-12-18T01:33:41;99890.34;;;-8.94;100.00
34586;BME280;20816;50.950;11.108;2022-12-18T01:36:11;99886.66;;;-8.98;100.00
34586;BME280;20816;50.950;11.108;2022-12-18T01:38:40;99894.06;;;-9.01;100.00
34586;BME280;20816;50.950;11.108;2022-12-18T01:41:08;99894.59;;;-9.05;100.00
34586;BME280;20816;50.950;11.108;2022-12-18T01:43:42;99888.81;;;-9.14;100.00
34586;BME280;20816;50.950;11.108;2022-12-18T01:46:09;99889.13;;;-9.21;100.00
34586;BME280;20816;50.950;11.108;2022-12-18T01:48:36;99890.66;;;-9.23;100.00
34586;BME280;20816;50.950;11.108;2022-12-18T01:51:04;99890.44;;;-9.26;100.00
34586;BME280;20816;50.950;11.108;2022-12-18T01:53:32;99895.72;;;-9.35;100.00
34586;BME280;20816;50.950;11.108;2022-12-18T01:55:59;99885.41;;;-9.37;100.00
34586;BME280;20816;50.950;11.108;2022-12-18T02:00:58;99887.97;;;-9.58;100.00
34586;BME280;20816;50.950;11.108;2022-12-18T02:03:25;99894.22;;;-9.65;100.00
34586;BME280;20816;50.950;11.108;2022-12-18T02:09:17;99903.44;;;-9.55;100.00
34586;BME280;20816;50.950;11.108;2022-12-18T02:17:37;99886.41;;;-9.35;100.00
34586;BME280;20816;50.950;11.108;2022-12-18T02:20:20;99879.13;;;-9.30;100.00
34586;BME280;20816;50.950;11.108;2022-12-18T02:28:45;99884.84;;;-9.44;100.00
34586;BME280;20816;50.950;11.108;2022-12-18T02:31:18;99883.56;;;-9.49;100.00
34586;BME280;20816;50.950;11.108;2022-12-18T02:33:48;99870.81;;;-9.61;100.00
34586;BME280;20816;50.950;11.108;2022-12-18T02:36:17;99872.09;;;-9.66;100.00
34586;BME280;20816;50.950;11.108;2022-12-18T02:38:45;99875.91;;;-9.61;100.00
34586;BME280;20816;50.950;11.108;2022-12-18T02:41:14;99884.53;;;-9.59;100.00
34586;BME280;20816;50.950;11.108;2022-12-18T02:43:48;99884.75;;;-9.56;100.00
34586;BME280;20816;50.950;11.108;2022-12-18T02:46:45;99881.22;;;-9.58;100.00
34586;BME280;20816;50.950;11.108;2022-12-18T02:57:42;99879.78;;;-9.76;100.00
34586;BME280;20816;50.950;11.108;2022-12-18T03:00:27;99887.72;;;-9.83;100.00
34586;BME280;20816;50.950;11.108;2022-12-18T03:03:16;99887.22;;;-9.90;100.00
34586;BME280;20816;50.950;11.108;2022-12-18T03:06:00;99883.19;;;-9.98;100.00
34586;BME280;20816;50.950;11.108;2022-12-18T03:08:31;99885.84;;;-9.96;100.00
34586;BME280;20816;50.950;11.108;2022-12-18T03:11:09;99880.13;;;-9.94;100.00
34586;BME280;20816;50.950;11.108;2022-12-18T03:13:46;99885.22;;;-9.94;100.00
34586;BME280;20816;50.950;11.108;2022-12-18T03:16:23;99884.72;;;-10.00;100.00
34586;BME280;20816;50.950;11.108;2022-12-18T03:19:01;99879.63;;;-10.00;100.00
34586;BME280;20816;50.950;11.108;2022-12-18T03:21:38;99875.59;;;-10.08;100.00
34586;BME280;20816;50.950;11.108;2022-12-18T03:24:07;99884.22;;;-10.06;100.00
34586;BME280;20816;50.950;11.108;2022-12-18T03:26:38;99890.56;;;-10.01;100.00
34586;BME280;20816;50.950;11.108;2022-12-18T03:29:11;99894.63;;;-10.03;100.00
34586;BME280;20816;50.950;11.108;2022-12-18T03:31:42;99896.44;;;-10.02;100.00
34586;BME280;20816;50.950;11.108;2022-12-18T03:34:17;99907.38;;;-10.13;100.00
34586;BME280;20816;50.950;11.108;2022-12-18T03:36:47;99915.00;;;-10.13;100.00
34586;BME280;20816;50.950;11.108;2022-12-18T03:39:14;99910.69;;;-10.14;100.00
34586;BME280;20816;50.950;11.108;2022-12-18T03:41:44;99907.66;;;-10.20;100.00
34586;BME280;20816;50.950;11.108;2022-12-18T03:44:21;99904.53;;;-10.28;100.00
34586;BME280;20816;50.950;11.108;2022-12-18T03:47:22;99905.97;;;-10.41;100.00
34586;BME280;20816;50.950;11.108;2022-12-18T03:50:06;99905.97;;;-10.52;100.00
34586;BME280;20816;50.950;11.108;2022-12-18T03:52:44;99903.72;;;-10.59;100.00
34586;BME280;20816;50.950;11.108;2022-12-18T03:55:14;99912.84;;;-10.61;100.00
34586;BME280;20816;50.950;11.108;2022-12-18T03:57:42;99916.28;;;-10.60;100.00
34586;BME280;20816;50.950;11.108;2022-12-18T04:00:13;99916.03;;;-10.63;100.00
34586;BME280;20816;50.950;11.108;2022-12-18T04:03:01;99902.81;;;-10.59;100.00
34586;BME280;20816;50.950;11.108;2022-12-18T04:05:29;99898.50;;;-10.60;100.00
34586;BME280;20816;50.950;11.108;2022-12-18T04:07:57;99901.94;;;-10.50;100.00
34586;BME280;20816;50.950;11.108;2022-12-18T04:10:24;99895.59;;;-10.65;100.00
34586;BME280;20816;50.950;11.108;2022-12-18T04:12:50;99905.78;;;-10.75;100.00
34586;BME280;20816;50.950;11.108;2022-12-18T04:15:21;99905.25;;;-10.81;100.00
34586;BME280;20816;50.950;11.108;2022-12-18T04:17:49;99907.16;;;-10.89;100.00
34586;BME280;20816;50.950;11.108;2022-12-18T04:20:16;99909.44;;;-10.82;100.00
34586;BME280;20816;50.950;11.108;2022-12-18T04:22:43;99900.69;;;-10.75;100.00
34586;BME280;20816;50.950;11.108;2022-12-18T04:25:11;99895.88;;;-10.82;100.00
34586;BME280;20816;50.950;11.108;2022-12-18T04:27:38;99900.19;;;-10.81;100.00
34586;BME280;20816;50.950;11.108;2022-12-18T04:30:05;99896.34;;;-10.76;100.00
34586;BME280;20816;50.950;11.108;2022-12-18T04:32:33;99891.78;;;-10.70;100.00
34586;BME280;20816;50.950;11.108;2022-12-18T04:35:00;99891.03;;;-10.59;100.00
34586;BME280;20816;50.950;11.108;2022-12-18T04:37:27;99886.69;;;-10.60;100.00
34586;BME280;20816;50.950;11.108;2022-12-18T04:39:54;99887.44;;;-10.61;100.00
34586;BME280;20816;50.950;11.108;2022-12-18T04:42:20;99889.34;;;-10.68;100.00
34586;BME280;20816;50.950;11.108;2022-12-18T04:44:47;99889.50;;;-10.77;100.00
34586;BME280;20816;50.950;11.108;2022-12-18T04:47:14;99888.59;;;-10.67;100.00
34586;BME280;20816;50.950;11.108;2022-12-18T04:49:44;99881.44;;;-10.51;100.00
34586;BME280;20816;50.950;11.108;2022-12-18T04:52:11;99877.72;;;-10.24;100.00
34586;BME280;20816;50.950;11.108;2022-12-18T04:54:38;99890.69;;;-10.31;100.00
34586;BME280;20816;50.950;11.108;2022-12-18T04:57:05;99905.25;;;-10.51;100.00
34586;BME280;20816;50.950;11.108;2022-12-18T04:59:31;99904.47;;;-10.50;100.00
34586;BME280;20816;50.950;11.108;2022-12-18T05:01:58;99911.34;;;-10.59;100.00
34586;BME280;20816;50.950;11.108;2022-12-18T05:04:25;99918.69;;;-10.62;100.00
34586;BME280;20816;50.950;11.108;2022-12-18T05:06:58;99909.56;;;-10.70;100.00
34586;BME280;20816;50.950;11.108;2022-12-18T05:09:25;99916.81;;;-10.75;100.00
34586;BME280;20816;50.950;11.108;2022-12-18T05:11:51;99913.38;;;-10.85;100.00
34586;BME280;20816;50.950;11.108;2022-12-18T05:14:18;99902.97;;;-10.88;100.00
34586;BME280;20816;50.950;11.108;2022-12-18T05:16:45;99910.84;;;-10.95;100.00
34586;BME280;20816;50.950;11.108;2022-12-18T05:19:11;99915.28;;;-10.93;100.00
34586;BME280;20816;50.950;11.108;2022-12-18T05:21:38;99914.66;;;-10.90;100.00
34586;BME280;20816;50.950;11.108;2022-12-18T05:24:05;99913.66;;;-10.82;100.00
34586;BME280;20816;50.950;11.108;2022-12-18T05:26:32;99915.78;;;-10.87;100.00
34586;BME280;20816;50.950;11.108;2022-12-18T05:28:58;99908.81;;;-10.89;100.00
34586;BME280;20816;50.950;11.108;2022-12-18T05:31:25;99905.25;;;-11.02;100.00
34586;BME280;20816;50.950;11.108;2022-12-18T05:33:52;99892.78;;;-11.09;100.00
34586;BME280;20816;50.950;11.108;2022-12-18T05:36:19;99900.56;;;-11.07;100.00
34586;BME280;20816;50.950;11.108;2022-12-18T05:38:45;99908.03;;;-11.09;100.00
34586;BME280;20816;50.950;11.108;2022-12-18T05:41:12;99913.38;;;-11.06;100.00
34586;BME280;20816;50.950;11.108;2022-12-18T05:43:39;99916.94;;;-11.04;100.00
34586;BME280;20816;50.950;11.108;2022-12-18T05:46:09;99921.88;;;-10.95;100.00
34586;BME280;20816;50.950;11.108;2022-12-18T05:48:37;99922.28;;;-10.90;100.00
34586;BME280;20816;50.950;11.108;2022-12-18T05:51:11;99923.41;;;-10.77;100.00
34586;BME280;20816;50.950;11.108;2022-12-18T05:53:38;99929.34;;;-10.76;100.00
34586;BME280;20816;50.950;11.108;2022-12-18T05:56:08;99935.47;;;-10.74;100.00
34586;BME280;20816;50.950;11.108;2022-12-18T05:58:36;99932.94;;;-10.74;100.00
34586;BME280;20816;50.950;11.108;2022-12-18T06:03:34;99933.56;;;-10.87;100.00
34586;BME280;20816;50.950;11.108;2022-12-18T06:06:02;99930.38;;;-10.94;100.00
34586;BME280;20816;50.950;11.108;2022-12-18T06:08:28;99936.75;;;-10.99;100.00
34586;BME280;20816;50.950;11.108;2022-12-18T06:10:55;99928.72;;;-11.14;100.00
34586;BME280;20816;50.950;11.108;2022-12-18T06:13:22;99939.00;;;-11.23;100.00
34586;BME280;20816;50.950;11.108;2022-12-18T06:15:49;99939.34;;;-11.39;100.00
34586;BME280;20816;50.950;11.108;2022-12-18T06:18:15;99948.19;;;-11.44;100.00
34586;BME280;20816;50.950;11.108;2022-12-18T06:20:42;99946.28;;;-11.46;100.00
34586;BME280;20816;50.950;11.108;2022-12-18T06:23:09;99943.75;;;-11.46;100.00
34586;BME280;20816;50.950;11.108;2022-12-18T06:25:38;99939.56;;;-11.46;100.00
34586;BME280;20816;50.950;11.108;2022-12-18T06:28:04;99945.28;;;-11.48;100.00
34586;BME280;20816;50.950;11.108;2022-12-18T06:30:31;99943.13;;;-11.44;100.00
34586;BME280;20816;50.950;11.108;2022-12-18T06:32:58;99938.16;;;-11.42;100.00
34586;BME280;20816;50.950;11.108;2022-12-18T06:35:24;99945.41;;;-11.47;100.00
34586;BME280;20816;50.950;11.108;2022-12-18T06:37:51;99951.84;;;-11.50;100.00
34586;BME280;20816;50.950;11.108;2022-12-18T06:40:18;99953.63;;;-11.49;100.00
34586;BME280;20816;50.950;11.108;2022-12-18T06:42:45;99959.06;;;-11.55;100.00
34586;BME280;20816;50.950;11.108;2022-12-18T06:45:11;99959.56;;;-11.59;100.00
34586;BME280;20816;50.950;11.108;2022-12-18T06:47:38;99956.41;;;-11.56;100.00
34586;BME280;20816;50.950;11.108;2022-12-18T06:50:05;99957.91;;;-11.59;100.00
34586;BME280;20816;50.950;11.108;2022-12-18T06:52:32;99945.72;;;-11.63;100.00
34586;BME280;20816;50.950;11.108;2022-12-18T06:55:00;99947.84;;;-11.67;100.00
34586;BME280;20816;50.950;11.108;2022-12-18T06:57:27;99931.50;;;-11.71;100.00
34586;BME280;20816;50.950;11.108;2022-12-18T06:59:53;99931.75;;;-11.68;100.00
34586;BME280;20816;50.950;11.108;2022-12-18T07:02:20;99926.34;;;-11.62;100.00
34586;BME280;20816;50.950;11.108;2022-12-18T07:04:47;99932.81;;;-11.55;100.00
34586;BME280;20816;50.950;11.108;2022-12-18T07:07:14;99939.44;;;-11.47;100.00
34586;BME280;20816;50.950;11.108;2022-12-18T07:09:40;99941.22;;;-11.46;100.00
34586;BME280;20816;50.950;11.108;2022-12-18T07:12:07;99949.31;;;-11.50;100.00
34586;BME280;20816;50.950;11.108;2022-12-18T07:14:34;99950.84;;;-11.42;100.00
34586;BME280;20816;50.950;11.108;2022-12-18T07:17:01;99954.94;;;-11.34;100.00
34586;BME280;20816;50.950;11.108;2022-12-18T07:19:29;99949.19;;;-11.42;100.00
34586;BME280;20816;50.950;11.108;2022-12-18T07:21:56;99953.25;;;-11.44;100.00
34586;BME280;20816;50.950;11.108;2022-12-18T07:24:22;99962.28;;;-11.47;100.00
34586;BME280;20816;50.950;11.108;2022-12-18T07:26:49;99957.19;;;-11.47;100.00
34586;BME280;20816;50.950;11.108;2022-12-18T07:29:16;99965.03;;;-11.54;100.00
34586;BME280;20816;50.950;11.108;2022-12-18T07:31:43;99968.03;;;-11.59;100.00
34586;BME280;20816;50.950;11.108;2022-12-18T07:34:13;99985.03;;;-11.57;100.00
34586;BME280;20816;50.950;11.108;2022-12-18T07:36:41;99986.84;;;-11.56;100.00
34586;BME280;20816;50.950;11.108;2022-12-18T07:39:07;99992.63;;;-11.68;100.00
34586;BME280;20816;50.950;11.108;2022-12-18T07:41:34;99992.63;;;-11.68;100.00
34586;BME280;20816;50.950;11.108;2022-12-18T07:44:01;99990.06;;;-11.68;100.00
34586;BME280;20816;50.950;11.108;2022-12-18T07:46:27;99993.88;;;-11.73;100.00
34586;BME280;20816;50.950;11.108;2022-12-18T07:48:54;100009.34;;;-11.70;100.00
34586;BME280;20816;50.950;11.108;2022-12-18T07:51:21;100004.28;;;-11.70;100.00
34586;BME280;20816;50.950;11.108;2022-12-18T07:53:47;100007.78;;;-11.78;100.00
34586;BME280;20816;50.950;11.108;2022-12-18T07:56:18;100012.47;;;-11.82;100.00
34586;BME280;20816;50.950;11.108;2022-12-18T07:58:55;100018.44;;;-11.82;100.00
34586;BME280;20816;50.950;11.108;2022-12-18T08:01:22;100025.00;;;-11.84;100.00
34586;BME280;20816;50.950;11.108;2022-12-18T08:03:49;100023.09;;;-11.86;100.00
34586;BME280;20816;50.950;11.108;2022-12-18T08:06:18;100033.63;;;-11.82;100.00
34586;BME280;20816;50.950;11.108;2022-12-18T08:08:48;100025.91;;;-11.83;100.00
34586;BME280;20816;50.950;11.108;2022-12-18T08:11:15;100029.81;;;-11.87;100.00
34586;BME280;20816;50.950;11.108;2022-12-18T08:13:42;100031.84;;;-11.83;100.00
34586;BME280;20816;50.950;11.108;2022-12-18T08:16:09;100032.03;;;-11.71;100.00
34586;BME280;20816;50.950;11.108;2022-12-18T08:18:36;100031.31;;;-11.60;100.00
34586;BME280;20816;50.950;11.108;2022-12-18T08:21:10;100029.19;;;-11.55;100.00
34586;BME280;20816;50.950;11.108;2022-12-18T08:23:37;100036.84;;;-11.45;100.00
34586;BME280;20816;50.950;11.108;2022-12-18T08:26:08;100034.09;;;-11.38;100.00
34586;BME280;20816;50.950;11.108;2022-12-18T08:28:35;100031.25;;;-11.41;100.00
34586;BME280;20816;50.950;11.108;2022-12-18T08:31:02;100018.75;;;-11.40;100.00
34586;BME280;20816;50.950;11.108;2022-12-18T08:33:29;100019.91;;;-11.26;100.00
34586;BME280;20816;50.950;11.108;2022-12-18T08:35:55;100014.88;;;-11.16;100.00
34586;BME280;20816;50.950;11.108;2022-12-18T08:38:22;100015.13;;;-11.13;100.00
34586;BME280;20816;50.950;11.108;2022-12-18T08:40:49;100014.25;;;-11.03;100.00
34586;BME280;20816;50.950;11.108;2022-12-18T08:43:16;100008.31;;;-10.93;100.00
34586;BME280;20816;50.950;11.108;2022-12-18T08:46:01;100007.44;;;-10.84;100.00
34586;BME280;20816;50.950;11.108;2022-12-18T08:48:28;99990.56;;;-10.63;100.00
34586;BME280;20816;50.950;11.108;2022-12-18T08:50:59;99989.81;;;-10.41;100.00
34586;BME280;20816;50.950;11.108;2022-12-18T08:53:26;99987.91;;;-10.34;100.00
34586;BME280;20816;50.950;11.108;2022-12-18T08:56:02;99983.00;;;-10.10;100.00
34586;BME280;20816;50.950;11.108;2022-12-18T08:58:29;99974.91;;;-9.74;100.00
34586;BME280;20816;50.950;11.108;2022-12-18T09:01:00;99979.38;;;-9.50;98.96
34586;BME280;20816;50.950;11.108;2022-12-18T09:03:28;99979.06;;;-9.11;99.15
34586;BME280;20816;50.950;11.108;2022-12-18T09:05:55;99966.78;;;-8.83;98.19
34586;BME280;20816;50.950;11.108;2022-12-18T09:08:22;99967.94;;;-8.67;96.24
34586;BME280;20816;50.950;11.108;2022-12-18T09:10:50;99966.25;;;-8.22;95.94
34586;BME280;20816;50.950;11.108;2022-12-18T09:13:17;99969.34;;;-7.91;94.70
34586;BME280;20816;50.950;11.108;2022-12-18T09:15:48;99971.78;;;-7.69;92.52
34586;BME280;20816;50.950;11.108;2022-12-18T09:18:17;99954.88;;;-7.43;91.39
34586;BME280;20816;50.950;11.108;2022-12-18T09:20:45;99963.34;;;-7.08;90.50
34586;BME280;20816;50.950;11.108;2022-12-18T09:23:12;99963.03;;;-6.62;89.78
34586;BME280;20816;50.950;11.108;2022-12-18T09:25:38;99961.69;;;-6.19;88.80
34586;BME280;20816;50.950;11.108;2022-12-18T09:28:09;99959.94;;;-5.94;87.07
34586;BME280;20816;50.950;11.108;2022-12-18T09:30:40;99958.72;;;-5.72;86.57
34586;BME280;20816;50.950;11.108;2022-12-18T09:33:07;99946.72;;;-5.73;86.07
34586;BME280;20816;50.950;11.108;2022-12-18T09:35:38;99948.88;;;-5.53;84.33
34586;BME280;20816;50.950;11.108;2022-12-18T09:38:05;99947.09;;;-5.67;82.86
34586;BME280;20816;50.950;11.108;2022-12-18T09:40:35;99940.22;;;-5.81;81.64
34586;BME280;20816;50.950;11.108;2022-12-18T09:43:04;99940.31;;;-5.67;83.37
34586;BME280;20816;50.950;11.108;2022-12-18T09:45:42;99928.25;;;-5.41;83.01
34586;BME280;20816;50.950;11.108;2022-12-18T09:48:19;99920.97;;;-5.48;82.05
34586;BME280;20816;50.950;11.108;2022-12-18T09:50:48;99905.53;;;-5.63;82.01
34586;BME280;20816;50.950;11.108;2022-12-18T09:53:20;99915.31;;;-5.84;82.20
34586;BME280;20816;50.950;11.108;2022-12-18T09:55:49;99910.28;;;-5.69;82.49
34586;BME280;20816;50.950;11.108;2022-12-18T10:00:58;99912.16;;;-5.25;83.08
34586;BME280;20816;50.950;11.108;2022-12-18T10:03:25;99911.84;;;-4.89;81.73
34586;BME280;20816;50.950;11.108;2022-12-18T10:08:50;99903.28;;;-4.74;82.01
34586;BME280;20816;50.950;11.108;2022-12-18T10:11:40;99900.91;;;-4.57;81.09
34586;BME280;20816;50.950;11.108;2022-12-18T10:14:36;99909.06;;;-4.05;80.59
34586;BME280;20816;50.950;11.108;2022-12-18T10:22:54;99898.59;;;-3.31;78.10
34586;BME280;20816;50.950;11.108;2022-12-18T10:28:12;99885.28;;;-2.75;77.33
34586;BME280;20816;50.950;11.108;2022-12-18T10:30:41;99888.53;;;-3.26;74.69
34586;BME280;20816;50.950;11.108;2022-12-18T10:33:12;99886.22;;;-3.38;77.54
34586;BME280;20816;50.950;11.108;2022-12-18T10:35:41;99887.84;;;-3.07;79.15
34586;BME280;20816;50.950;11.108;2022-12-18T10:41:01;99904.38;;;-3.02;78.91
34586;BME280;20816;50.950;11.108;2022-12-18T10:48:41;99912.69;;;-4.16;81.90
34586;BME280;20816;50.950;11.108;2022-12-18T10:51:25;99917.00;;;-4.59;82.11
34586;BME280;20816;50.950;11.108;2022-12-18T10:53:59;99924.94;;;-4.84;84.37
34586;BME280;20816;50.950;11.108;2022-12-18T10:56:29;99928.88;;;-5.17;84.13
34586;BME280;20816;50.950;11.108;2022-12-18T10:59:08;99932.16;;;-5.20;85.33
34586;BME280;20816;50.950;11.108;2022-12-18T11:01:56;99938.53;;;-5.68;85.16
34586;BME280;20816;50.950;11.108;2022-12-18T11:04:28;99949.75;;;-5.79;85.87
34586;BME280;20816;50.950;11.108;2022-12-18T11:07:07;99936.56;;;-5.72;87.36
34586;BME280;20816;50.950;11.108;2022-12-18T11:09:35;99932.13;;;-5.74;86.53
34586;BME280;20816;50.950;11.108;2022-12-18T11:12:18;99921.50;;;-5.80;87.08
34586;BME280;20816;50.950;11.108;2022-12-18T11:14:50;99929.59;;;-6.14;88.13
34586;BME280;20816;50.950;11.108;2022-12-18T11:17:33;99922.53;;;-6.18;88.10
34586;BME280;20816;50.950;11.108;2022-12-18T11:20:05;99912.50;;;-6.02;87.97
34586;BME280;20816;50.950;11.108;2022-12-18T11:22:35;99908.44;;;-6.25;89.14
34586;BME280;20816;50.950;11.108;2022-12-18T11:25:18;99908.13;;;-6.29;89.18
34586;BME280;20816;50.950;11.108;2022-12-18T11:28:02;99912.47;;;-6.15;90.21
34586;BME280;20816;50.950;11.108;2022-12-18T11:30:32;99931.59;;;-6.10;89.76
34586;BME280;20816;50.950;11.108;2022-12-18T11:33:00;99921.84;;;-6.02;90.22
34586;BME280;20816;50.950;11.108;2022-12-18T11:35:45;99922.84;;;-6.00;89.04
34586;BME280;20816;50.950;11.108;2022-12-18T11:38:23;99917.41;;;-6.18;90.79
34586;BME280;20816;50.950;11.108;2022-12-18T11:40:56;99907.75;;;-6.35;90.83
34586;BME280;20816;50.950;11.108;2022-12-18T11:46:24;99892.13;;;-6.27;93.25
34586;BME280;20816;50.950;11.108;2022-12-18T11:49:01;99881.38;;;-6.21;92.76
34586;BME280;20816;50.950;11.108;2022-12-18T11:51:35;99884.34;;;-6.02;93.50
34586;BME280;20816;50.950;11.108;2022-12-18T11:54:12;99877.47;;;-6.03;93.28
34586;BME280;20816;50.950;11.108;2022-12-18T11:56:47;99867.00;;;-6.06;93.97
34586;BME280;20816;50.950;11.108;2022-12-18T12:11:31;99845.97;;;-5.74;96.31
34586;BME280;20816;50.950;11.108;2022-12-18T12:14:22;99838.28;;;-5.74;96.18
34586;BME280;20816;50.950;11.108;2022-12-18T12:17:03;99838.78;;;-5.66;96.06
34586;BME280;20816;50.950;11.108;2022-12-18T12:19:56;99830.19;;;-5.53;96.00
34586;BME280;20816;50.950;11.108;2022-12-18T12:23:08;99823.16;;;-5.56;96.50
34586;BME280;20816;50.950;11.108;2022-12-18T12:25:50;99821.63;;;-5.67;96.64
34586;BME280;20816;50.950;11.108;2022-12-18T12:28:34;99806.03;;;-5.57;96.79
34586;BME280;20816;50.950;11.108;2022-12-18T12:31:33;99808.03;;;-5.38;96.76
34586;BME280;20816;50.950;11.108;2022-12-18T12:39:43;99809.25;;;-5.18;97.62
34586;BME280;20816;50.950;11.108;2022-12-18T12:42:18;99812.78;;;-5.16;96.46
34586;BME280;20816;50.950;11.108;2022-12-18T12:45:06;99812.94;;;-5.28;96.31
34586;BME280;20816;50.950;11.108;2022-12-18T12:47:43;99825.84;;;-5.26;96.31
34586;BME280;20816;50.950;11.108;2022-12-18T12:50:15;99821.59;;;-5.26;96.08
34586;BME280;20816;50.950;11.108;2022-12-18T12:52:45;99820.50;;;-5.44;95.62
34586;BME280;20816;50.950;11.108;2022-12-18T12:55:25;99814.81;;;-5.53;96.38
34586;BME280;20816;50.950;11.108;2022-12-18T13:01:24;99815.13;;;-5.62;96.44
34586;BME280;20816;50.950;11.108;2022-12-18T13:06:37;99811.50;;;-5.66;95.80
34586;BME280;20816;50.950;11.108;2022-12-18T13:09:10;99799.38;;;-5.68;96.22
34586;BME280;20816;50.950;11.108;2022-12-18T13:11:39;99808.44;;;-5.73;95.80
34586;BME280;20816;50.950;11.108;2022-12-18T13:14:35;99804.22;;;-5.73;95.83
34586;BME280;20816;50.950;11.108;2022-12-18T13:20:02;99786.22;;;-5.74;95.46
34586;BME280;20816;50.950;11.108;2022-12-18T13:28:09;99764.88;;;-6.03;96.27
34586;BME280;20816;50.950;11.108;2022-12-18T13:30:41;99759.16;;;-6.12;97.23
34586;BME280;20816;50.950;11.108;2022-12-18T13:38:24;99757.78;;;-6.07;97.64
34586;BME280;20816;50.950;11.108;2022-12-18T13:41:00;99757.47;;;-5.98;98.42
34586;BME280;20816;50.950;11.108;2022-12-18T13:46:06;99755.72;;;-5.84;97.44
34586;BME280;20816;50.950;11.108;2022-12-18T13:48:50;99760.63;;;-6.02;97.83
34586;BME280;20816;50.950;11.108;2022-12-18T13:51:19;99752.34;;;-5.98;97.81
34586;BME280;20816;50.950;11.108;2022-12-18T13:56:30;99769.59;;;-6.09;97.38
34586;BME280;20816;50.950;11.108;2022-12-18T13:59:17;99777.94;;;-6.11;96.44
34586;BME280;20816;50.950;11.108;2022-12-18T14:01:54;99772.47;;;-6.31;97.28
34586;BME280;20816;50.950;11.108;2022-12-18T14:04:25;99778.16;;;-6.22;97.66
34586;BME280;20816;50.950;11.108;2022-12-18T14:07:04;99773.03;;;-6.22;96.97
34586;BME280;20816;50.950;11.108;2022-12-18T14:09:40;99775.13;;;-6.29;97.75
34586;BME280;20816;50.950;11.108;2022-12-18T14:12:24;99783.00;;;-6.26;98.46
34586;BME280;20816;50.950;11.108;2022-12-18T14:18:21;99777.09;;;-6.25;97.95
34586;BME280;20816;50.950;11.108;2022-12-18T14:20:54;99761.66;;;-6.27;98.27
34586;BME280;20816;50.950;11.108;2022-12-18T14:26:00;99754.78;;;-6.41;97.65
34586;BME280;20816;50.950;11.108;2022-12-18T14:28:31;99756.84;;;-6.48;97.70
34586;BME280;20816;50.950;11.108;2022-12-18T14:30:58;99766.91;;;-6.52;97.87
34586;BME280;20816;50.950;11.108;2022-12-18T14:33:27;99757.16;;;-6.57;98.40
34586;BME280;20816;50.950;11.108;2022-12-18T14:38:32;99752.75;;;-6.60;99.37
34586;BME280;20816;50.950;11.108;2022-12-18T14:41:10;99758.22;;;-6.54;99.66
34586;BME280;20816;50.950;11.108;2022-12-18T14:43:39;99761.19;;;-6.47;99.31